Time;durP1;ratioP1;P1;durP2;ratioP2;P2;SDS_P1;SDS_P2;PMS_P1;PMS_P2;Temp;Humidity;BMP_temperature;BMP_pressure;BME280_temperature;BME280_humidity;BME280_pressure;Samples;Min_cycle;Max_cycle;Signal;HPM_P1;HPM_P2
2021/01/12 00:02:03;;;;;;;113.47;41.17;;;0.60;99.90;;;;;;4905007;29;20227;-92
2021/01/12 00:04:32;;;;;;;166.10;59.03;;;-1.80;99.90;;;;;;4937466;29;20217;-92
2021/01/12 00:06:58;;;;;;;93.83;34.93;;;0.60;99.90;;;;;;4937178;29;20278;-91
2021/01/12 00:09:24;;;;;;;51.20;23.83;;;0.60;99.90;;;;;;4936852;29;20294;-92
2021/01/12 00:11:53;;;;;;;101.13;37.17;;;0.30;99.90;;;;;;4910207;29;20205;-92
2021/01/12 00:14:36;;;;;;;71.77;28.33;;;-0.90;99.90;;;;;;4952518;29;20215;-91
2021/01/12 00:17:05;;;;;;;70.50;27.27;;;-2.10;99.90;;;;;;4939807;29;20187;-91
2021/01/12 00:19:31;;;;;;;103.80;36.33;;;-2.10;99.90;;;;;;4936426;29;20184;-92
2021/01/12 00:21:58;;;;;;;85.90;35.03;;;0.60;99.90;;;;;;4953587;29;20193;-91
2021/01/12 00:24:26;;;;;;;96.43;39.37;;;-0.30;99.90;;;;;;4920615;29;20234;-90
2021/01/12 00:26:53;;;;;;;108.13;40.83;;;-0.80;99.90;;;;;;4937023;29;20239;-90
2021/01/12 00:29:19;;;;;;;158.80;57.03;;;-0.40;99.90;;;;;;4951634;29;20206;-90
2021/01/12 00:31:46;;;;;;;135.43;49.37;;;-1.00;99.90;;;;;;4918558;29;20193;-90
2021/01/12 00:34:13;;;;;;;105.63;38.07;;;-1.00;99.90;;;;;;4947305;29;20215;-90
2021/01/12 00:36:49;;;;;;;99.53;36.70;;;-0.20;99.90;;;;;;4936374;29;20186;-90
2021/01/12 00:39:15;;;;;;;81.53;34.30;;;-2.50;99.90;;;;;;4951989;29;20190;-90
2021/01/12 00:41:41;;;;;;;83.70;34.87;;;-0.70;99.90;;;;;;4935941;29;20199;-90
2021/01/12 00:44:07;;;;;;;87.57;34.57;;;-2.80;99.90;;;;;;4930238;28;20570;-90
2021/01/12 00:46:34;;;;;;;104.17;39.17;;;-2.80;99.90;;;;;;4935419;29;20195;-90
2021/01/12 00:49:00;;;;;;;101.63;38.50;;;-1.30;99.90;;;;;;4943251;29;20198;-90
2021/01/12 00:51:36;;;;;;;96.83;38.67;;;-2.30;99.90;;;;;;4953063;29;20534;-90
2021/01/12 00:54:05;;;;;;;104.23;36.93;;;-2.90;99.90;;;;;;4951361;29;20237;-89
2021/01/12 00:56:31;;;;;;;99.13;39.57;;;-0.10;99.90;;;;;;4935674;29;20279;-90
2021/01/12 00:58:56;;;;;;;98.60;40.67;;;-0.30;99.90;;;;;;4932232;29;20330;-90
2021/01/12 01:01:22;;;;;;;139.83;52.23;;;-1.10;99.90;;;;;;4941822;29;20235;-90
2021/01/12 01:03:48;;;;;;;156.50;52.90;;;-3.20;99.90;;;;;;4921872;29;20205;-90
2021/01/12 01:06:13;;;;;;;141.83;49.40;;;-1.80;99.90;;;;;;4935737;29;20189;-90
2021/01/12 01:08:39;;;;;;;166.57;57.90;;;-1.80;99.90;;;;;;4922908;29;20204;-90
2021/01/12 01:11:05;;;;;;;216.57;69.93;;;-0.90;99.90;;;;;;4934283;29;20598;-89
2021/01/12 01:13:31;;;;;;;188.50;64.40;;;-4.80;99.90;;;;;;4931885;29;20243;-90
2021/01/12 01:15:56;;;;;;;182.27;59.67;;;-0.80;99.90;;;;;;4939518;29;20282;-90
2021/01/12 01:18:22;;;;;;;246.30;80.20;;;-3.30;99.90;;;;;;4940040;29;20242;-90
2021/01/12 01:20:49;;;;;;;158.43;56.17;;;-1.70;99.90;;;;;;4955024;29;20193;-89
2021/01/12 01:23:15;;;;;;;201.20;69.57;;;-3.30;99.90;;;;;;4939388;29;20225;-90
2021/01/12 01:25:41;;;;;;;238.00;80.47;;;-1.50;99.90;;;;;;4939364;29;20192;-91
2021/01/12 01:28:06;;;;;;;160.93;57.67;;;-1.90;99.90;;;;;;4939892;29;20232;-90
2021/01/12 01:30:32;;;;;;;190.13;65.67;;;-3.30;99.90;;;;;;4940225;29;20529;-91
2021/01/12 01:32:58;;;;;;;121.60;46.50;;;-0.70;99.90;;;;;;4957049;29;20204;-91
2021/01/12 01:35:25;;;;;;;104.60;38.47;;;-1.90;99.90;;;;;;4939851;29;20535;-93
2021/01/12 01:37:51;;;;;;;101.27;37.37;;;-1.10;99.90;;;;;;4938520;29;20195;-92
2021/01/12 01:40:22;;;;;;;99.97;37.40;;;-3.60;99.90;;;;;;4932003;29;20676;-90
2021/01/12 01:42:48;;;;;;;110.50;40.77;;;-1.70;99.90;;;;;;4946886;29;20249;-89
2021/01/12 01:45:15;;;;;;;98.07;39.20;;;-0.60;99.90;;;;;;4947143;29;20235;-90
2021/01/12 01:47:43;;;;;;;112.77;44.27;;;-3.40;99.90;;;;;;4942141;29;20198;-90
2021/01/12 01:50:18;;;;;;;116.10;47.47;;;-2.50;99.90;;;;;;4942157;29;20188;-90
2021/01/12 01:52:48;;;;;;;119.07;47.67;;;-1.90;99.90;;;;;;4939586;29;20206;-90
2021/01/12 01:55:15;;;;;;;123.23;48.87;;;-3.40;99.90;;;;;;4934911;29;20656;-91
2021/01/12 01:57:41;;;;;;;131.50;48.97;;;-2.40;99.90;;;;;;4947610;29;20191;-90
2021/01/12 02:00:08;;;;;;;130.63;47.77;;;-2.90;99.90;;;;;;4923726;29;20199;-91
2021/01/12 02:03:00;;;;;;;111.97;41.90;;;-3.60;99.90;;;;;;4956877;29;20192;-90
2021/01/12 02:05:32;;;;;;;110.07;41.37;;;-3.70;99.90;;;;;;4930313;29;20653;-90
2021/01/12 02:08:05;;;;;;;96.77;38.17;;;-1.50;99.90;;;;;;4956190;28;20778;-90
2021/01/12 02:10:34;;;;;;;100.47;36.90;;;-2.30;99.90;;;;;;4938782;29;20238;-90
2021/01/12 02:13:02;;;;;;;101.93;38.60;;;-3.60;99.90;;;;;;4939163;29;20219;-89
2021/01/12 02:15:29;;;;;;;109.27;41.77;;;-3.80;99.90;;;;;;4939559;29;20206;-89
2021/01/12 02:17:56;;;;;;;93.50;38.10;;;-3.90;99.90;;;;;;4941954;29;20250;-90
2021/01/12 02:20:27;;;;;;;102.50;39.03;;;-2.20;99.90;;;;;;4938678;29;20280;-91
2021/01/12 02:23:03;;;;;;;125.63;45.40;;;-1.60;99.90;;;;;;4937840;29;20191;-91
2021/01/12 02:25:37;;;;;;;109.40;38.93;;;-2.90;99.90;;;;;;4939071;29;20229;-91
2021/01/12 02:28:10;;;;;;;97.13;35.27;;;-4.00;99.90;;;;;;4938895;29;20186;-91
2021/01/12 02:30:37;;;;;;;108.30;40.20;;;-4.10;99.90;;;;;;4956562;29;20271;-91
2021/01/12 02:33:04;;;;;;;104.03;39.07;;;-3.60;99.90;;;;;;4938594;29;20683;-91
2021/01/12 02:35:32;;;;;;;97.10;38.07;;;-4.10;99.90;;;;;;4923243;29;20199;-90
2021/01/12 02:37:58;;;;;;;87.67;36.47;;;-2.50;99.90;;;;;;4938555;29;20654;-91
2021/01/12 02:40:25;;;;;;;121.93;48.13;;;-4.00;99.90;;;;;;4938721;29;20243;-91
2021/01/12 02:42:51;;;;;;;96.17;39.20;;;-3.60;99.90;;;;;;4922356;29;20285;-91
2021/01/12 02:45:18;;;;;;;95.00;38.73;;;-4.30;99.90;;;;;;4930265;29;20238;-91
2021/01/12 02:47:43;;;;;;;122.80;42.63;;;-4.20;99.90;;;;;;4955244;29;20193;-91
2021/01/12 02:50:12;;;;;;;102.47;42.03;;;-1.80;99.90;;;;;;4938787;29;20183;-91
2021/01/12 02:52:39;;;;;;;124.67;49.63;;;-4.30;99.90;;;;;;4955694;28;20270;-93
2021/01/12 02:55:06;;;;;;;97.03;36.83;;;-4.40;99.90;;;;;;4938537;29;20214;-90
2021/01/12 02:57:32;;;;;;;99.50;38.23;;;-4.20;99.90;;;;;;4948707;29;20274;-92
2021/01/12 02:59:57;;;;;;;120.40;44.60;;;-3.10;99.90;;;;;;4931244;29;20652;-90
2021/01/12 03:02:23;;;;;;;90.57;36.57;;;-1.60;99.90;;;;;;4936534;29;20593;-90
2021/01/12 03:04:49;;;;;;;113.60;42.77;;;-2.80;99.90;;;;;;4951319;28;20188;-91
2021/01/12 03:07:14;;;;;;;84.10;31.80;;;-2.60;99.90;;;;;;4950320;29;20190;-91
2021/01/12 03:09:40;;;;;;;84.93;35.10;;;-2.90;99.90;;;;;;4934783;29;20204;-90
2021/01/12 03:12:06;;;;;;;94.90;36.33;;;-5.60;99.90;;;;;;4938080;29;20195;-91
2021/01/12 03:14:31;;;;;;;88.80;39.67;;;-4.50;99.90;;;;;;4953658;28;20276;-89
2021/01/12 03:16:59;;;;;;;72.07;29.70;;;-2.80;99.90;;;;;;4954098;28;20203;-91
2021/01/12 03:19:25;;;;;;;69.77;31.30;;;-2.40;99.90;;;;;;4937645;29;20187;-91
2021/01/12 03:21:50;;;;;;;69.80;27.53;;;-3.20;99.90;;;;;;4943880;29;20194;-92
2021/01/12 03:24:16;;;;;;;78.63;32.73;;;-2.60;99.90;;;;;;4936843;29;20196;-92
2021/01/12 03:26:41;;;;;;;81.07;30.70;;;-2.90;99.90;;;;;;4937649;29;20191;-91
2021/01/12 03:29:07;;;;;;;82.10;30.87;;;-1.90;99.90;;;;;;4953551;29;20191;-91
2021/01/12 03:31:35;;;;;;;82.33;32.10;;;-2.90;99.90;;;;;;4950235;28;20199;-91
2021/01/12 03:34:01;;;;;;;62.53;26.17;;;-2.80;99.90;;;;;;4953271;28;20266;-91
2021/01/12 03:36:27;;;;;;;60.63;25.47;;;-3.60;99.90;;;;;;4940561;29;20278;-89
2021/01/12 03:38:53;;;;;;;64.47;26.17;;;-1.70;99.90;;;;;;4955080;29;20367;-92
2021/01/12 03:41:18;;;;;;;59.33;24.43;;;-3.00;99.90;;;;;;4938136;29;20257;-90
2021/01/12 03:43:44;;;;;;;51.87;24.73;;;-4.50;99.90;;;;;;4953139;29;20687;-91
2021/01/12 03:46:10;;;;;;;70.97;27.00;;;-2.50;99.90;;;;;;4953938;28;20286;-89
2021/01/12 03:48:35;;;;;;;75.67;28.43;;;-4.70;99.90;;;;;;4934583;29;20613;-90
2021/01/12 03:51:01;;;;;;;68.60;28.90;;;-4.50;99.90;;;;;;4954392;29;20677;-91
2021/01/12 03:53:27;;;;;;;79.40;31.63;;;-4.40;99.90;;;;;;4937980;29;20212;-91
2021/01/12 03:55:52;;;;;;;57.60;24.27;;;-2.80;99.90;;;;;;4954224;29;20278;-90
2021/01/12 03:58:18;;;;;;;69.33;27.73;;;-2.70;99.90;;;;;;4953741;29;20872;-91
2021/01/12 04:00:44;;;;;;;57.63;25.47;;;-3.40;99.90;;;;;;4953598;29;20680;-93
2021/01/12 04:03:10;;;;;;;51.20;20.77;;;-2.50;99.90;;;;;;4953798;29;20187;-91
2021/01/12 04:05:38;;;;;;;52.33;24.57;;;-4.70;99.90;;;;;;4937403;28;20203;-90
2021/01/12 04:08:08;;;;;;;69.57;29.00;;;-2.80;99.90;;;;;;4944392;28;20183;-91
2021/01/12 04:10:34;;;;;;;63.23;26.83;;;-2.50;99.90;;;;;;4951524;29;20213;-90
2021/01/12 04:13:03;;;;;;;72.17;27.13;;;-4.40;99.90;;;;;;4952062;29;20921;-91
2021/01/12 04:15:29;;;;;;;63.47;25.47;;;-3.90;99.90;;;;;;4953405;28;20210;-91
2021/01/12 04:17:54;;;;;;;65.57;27.07;;;-2.80;99.90;;;;;;4923507;29;20200;-91
2021/01/12 04:20:21;;;;;;;70.77;28.70;;;-2.10;99.90;;;;;;4942039;29;20197;-91
2021/01/12 04:22:47;;;;;;;77.67;30.87;;;-4.40;99.90;;;;;;4933724;29;20222;-90
2021/01/12 04:25:13;;;;;;;70.00;29.93;;;-2.20;99.90;;;;;;4937250;29;20646;-90
2021/01/12 04:27:41;;;;;;;65.83;29.13;;;-2.20;99.90;;;;;;4953162;29;20708;-90
2021/01/12 04:30:07;;;;;;;64.30;26.67;;;-2.90;99.90;;;;;;4942728;29;20656;-90
2021/01/12 04:32:33;;;;;;;49.83;23.10;;;-4.10;99.90;;;;;;4952435;29;20187;-91
2021/01/12 04:34:58;;;;;;;44.93;20.87;;;-2.30;99.90;;;;;;4934926;29;20202;-92
2021/01/12 04:37:24;;;;;;;51.07;22.97;;;-2.00;99.90;;;;;;4937479;29;20201;-91
2021/01/12 04:39:50;;;;;;;54.00;26.47;;;-2.40;99.90;;;;;;4952049;28;20213;-91
2021/01/12 04:42:16;;;;;;;53.33;25.07;;;-1.90;99.90;;;;;;4952309;29;20191;-90
2021/01/12 04:44:41;;;;;;;58.63;25.43;;;-3.60;99.90;;;;;;4943073;29;20236;-91
2021/01/12 04:47:07;;;;;;;47.33;24.20;;;-1.80;99.90;;;;;;4923134;29;20195;-91
2021/01/12 04:49:33;;;;;;;48.07;21.70;;;-4.20;99.90;;;;;;4936116;29;20271;-91
2021/01/12 04:52:03;;;;;;;60.63;26.13;;;-2.80;99.90;;;;;;4941868;29;20181;-92
2021/01/12 04:54:33;;;;;;;66.00;27.10;;;-1.80;99.90;;;;;;4935860;29;20283;-91
2021/01/12 04:56:59;;;;;;;68.50;27.77;;;-1.30;99.90;;;;;;4935651;29;20191;-91
2021/01/12 04:59:33;;;;;;;98.13;33.53;;;-2.70;99.90;;;;;;4936051;29;20247;-91
2021/01/12 05:02:00;;;;;;;70.03;31.97;;;-1.00;99.90;;;;;;4952205;28;20201;-91
2021/01/12 05:04:26;;;;;;;75.83;29.13;;;-2.50;99.90;;;;;;4939840;29;20218;-91
2021/01/12 05:06:56;;;;;;;55.03;23.77;;;-1.00;99.90;;;;;;4947634;28;20227;-90
2021/01/12 05:09:22;;;;;;;83.23;36.73;;;-3.10;99.90;;;;;;4944101;29;20699;-90
2021/01/12 05:11:49;;;;;;;43.33;20.90;;;-3.90;99.90;;;;;;4954394;28;20637;-91
2021/01/12 05:14:16;;;;;;;43.07;19.50;;;-3.10;99.90;;;;;;4955126;28;20302;-90
2021/01/12 05:16:46;;;;;;;45.37;20.93;;;-2.60;99.90;;;;;;4945453;28;20202;-90
2021/01/12 05:19:19;;;;;;;44.93;22.33;;;-1.90;99.90;;;;;;4951269;29;20242;-89
2021/01/12 05:21:46;;;;;;;66.60;29.83;;;-1.20;99.90;;;;;;4946894;29;20183;-91
2021/01/12 05:24:15;;;;;;;83.87;34.77;;;-1.30;99.90;;;;;;4952683;28;20978;-91
2021/01/12 05:26:41;;;;;;;74.40;29.70;;;-2.00;99.90;;;;;;4946207;29;20274;-91
2021/01/12 05:29:07;;;;;;;110.77;40.97;;;-1.20;99.90;;;;;;4946607;29;20190;-89
2021/01/12 05:31:35;;;;;;;110.90;39.17;;;-1.70;99.90;;;;;;4951321;28;20242;-90
2021/01/12 05:34:08;;;;;;;134.77;45.90;;;-3.60;99.90;;;;;;4955351;28;20715;-91
2021/01/12 05:36:50;;;;;;;83.80;33.40;;;-4.00;99.90;;;;;;4975008;28;20652;-90
2021/01/12 05:39:21;;;;;;;111.50;40.90;;;-3.90;99.90;;;;;;4947341;29;20175;-90
2021/01/12 05:41:50;;;;;;;90.90;36.33;;;-3.40;99.90;;;;;;4952819;29;20191;-91
2021/01/12 05:44:20;;;;;;;101.50;35.40;;;-2.50;99.90;;;;;;4955157;28;20234;-90
2021/01/12 05:46:48;;;;;;;91.77;37.63;;;-3.90;99.90;;;;;;4917833;29;20190;-89
2021/01/12 05:49:17;;;;;;;90.70;31.40;;;-1.30;99.90;;;;;;4948307;29;20184;-90
2021/01/12 05:51:45;;;;;;;85.50;30.97;;;-3.20;99.90;;;;;;4954705;28;20195;-91
2021/01/12 05:54:38;;;;;;;85.53;30.40;;;-2.00;99.90;;;;;;4939658;29;20711;-90
2021/01/12 05:57:06;;;;;;;117.83;40.03;;;-3.70;99.90;;;;;;4937786;29;20219;-92
2021/01/12 05:59:34;;;;;;;112.63;43.60;;;-3.60;99.90;;;;;;4935055;29;20191;-89
2021/01/12 06:02:10;;;;;;;107.37;39.47;;;-1.90;99.90;;;;;;4944086;28;20192;-88
2021/01/12 06:04:39;;;;;;;102.80;37.63;;;-3.60;99.90;;;;;;4968053;28;20184;-88
2021/01/12 06:07:05;;;;;;;137.87;49.90;;;-1.00;99.90;;;;;;4950150;29;20191;-88
2021/01/12 06:09:31;;;;;;;138.57;52.10;;;-2.30;99.90;;;;;;4924953;29;20291;-88
2021/01/12 06:11:58;;;;;;;105.93;43.37;;;-2.20;99.90;;;;;;4952679;28;20585;-86
2021/01/12 06:14:28;;;;;;;145.10;52.27;;;-2.70;99.90;;;;;;4940134;28;20684;-91
2021/01/12 06:16:56;;;;;;;57.50;25.47;;;-3.90;99.90;;;;;;4938767;29;20205;-90
2021/01/12 06:19:24;;;;;;;108.47;36.17;;;-1.80;99.90;;;;;;4941252;29;20191;-88
2021/01/12 06:21:55;;;;;;;112.00;38.90;;;-3.90;99.90;;;;;;4938556;29;20198;-87
2021/01/12 06:24:33;;;;;;;129.17;44.47;;;-3.80;99.90;;;;;;4941695;29;20219;-86
2021/01/12 06:26:59;;;;;;;120.13;39.83;;;-1.20;99.90;;;;;;4955354;28;20261;-86
2021/01/12 06:29:28;;;;;;;96.33;34.23;;;-1.60;99.90;;;;;;4923723;29;20187;-87
2021/01/12 06:31:56;;;;;;;107.97;37.63;;;-3.80;99.90;;;;;;4954612;29;20654;-89
2021/01/12 06:34:21;;;;;;;100.63;36.57;;;-1.40;99.90;;;;;;4955857;29;20207;-90
2021/01/12 06:36:59;;;;;;;102.77;35.87;;;-3.80;99.90;;;;;;4932016;29;20677;-91
2021/01/12 06:39:41;;;;;;;85.43;34.93;;;-3.70;99.90;;;;;;4931665;29;20195;-88
2021/01/12 06:42:09;;;;;;;90.87;37.53;;;-3.70;99.90;;;;;;4938951;29;20179;-89
2021/01/12 06:44:36;;;;;;;83.53;33.03;;;-3.80;99.90;;;;;;4955420;28;20245;-90
2021/01/12 06:47:05;;;;;;;69.87;33.67;;;-2.60;99.90;;;;;;4954567;29;20676;-90
2021/01/12 06:49:30;;;;;;;70.50;29.53;;;-1.70;99.90;;;;;;4953456;28;20243;-91
2021/01/12 06:52:07;;;;;;;72.07;32.37;;;-1.90;99.90;;;;;;4969620;28;20193;-90
2021/01/12 06:54:40;;;;;;;72.80;31.67;;;-3.70;99.90;;;;;;4954907;28;20211;-89
2021/01/12 06:57:16;;;;;;;69.33;31.87;;;-1.10;99.90;;;;;;4951932;29;20191;-90
2021/01/12 06:59:51;;;;;;;55.50;25.83;;;-3.70;99.90;;;;;;4944778;29;20282;-89
2021/01/12 07:02:27;;;;;;;54.80;24.70;;;-3.60;99.90;;;;;;4953749;29;20184;-91
2021/01/12 07:05:07;;;;;;;51.57;26.03;;;-1.80;99.90;;;;;;4955739;28;20249;-90
2021/01/12 07:07:38;;;;;;;60.80;26.63;;;-3.50;99.90;;;;;;4953561;28;20194;-88
2021/01/12 07:10:10;;;;;;;61.70;24.87;;;-3.50;99.90;;;;;;4955112;29;20187;-90
2021/01/12 07:12:36;;;;;;;55.07;25.53;;;-3.50;99.90;;;;;;4953220;29;20239;-89
2021/01/12 07:15:08;;;;;;;54.73;24.60;;;-2.90;99.90;;;;;;4955263;28;20191;-90
2021/01/12 07:17:40;;;;;;;50.87;23.47;;;-5.50;99.90;;;;;;4954343;29;20541;-91
2021/01/12 07:20:19;;;;;;;50.87;23.70;;;-2.60;99.90;;;;;;4953676;29;20274;-89
2021/01/12 07:23:12;;;;;;;55.37;23.17;;;-3.40;99.90;;;;;;4937225;29;20239;-90
2021/01/12 07:25:43;;;;;;;51.30;23.90;;;-3.30;99.90;;;;;;4952832;29;21028;-90
2021/01/12 07:28:14;;;;;;;50.67;24.43;;;-3.20;99.90;;;;;;4934394;29;20196;-89
2021/01/12 07:30:42;;;;;;;81.57;32.67;;;-1.00;99.90;;;;;;4953493;29;20207;-90
2021/01/12 07:33:17;;;;;;;92.33;35.53;;;-3.10;99.90;;;;;;4937033;29;20305;-90
2021/01/12 07:35:44;;;;;;;89.57;35.27;;;-2.60;99.90;;;;;;4952441;28;20192;-90
2021/01/12 07:38:16;;;;;;;72.37;30.53;;;-0.70;99.90;;;;;;4950960;29;20189;-90
2021/01/12 07:40:42;;;;;;;58.53;26.93;;;-2.90;99.90;;;;;;4952278;28;20658;-91
2021/01/12 07:43:16;;;;;;;69.00;27.40;;;-1.50;99.90;;;;;;4953074;28;20195;-89
2021/01/12 07:45:42;;;;;;;65.43;27.97;;;-2.80;99.90;;;;;;4952436;28;20234;-90
2021/01/12 07:48:09;;;;;;;73.50;30.33;;;-1.50;99.90;;;;;;4952291;28;20189;-89
2021/01/12 07:50:35;;;;;;;82.73;31.73;;;-2.60;99.90;;;;;;4955185;28;20285;-91
2021/01/12 07:53:04;;;;;;;70.00;29.30;;;-1.30;99.90;;;;;;4950558;28;20219;-90
2021/01/12 07:55:30;;;;;;;70.27;27.23;;;-1.60;99.90;;;;;;4958604;28;20193;-91
2021/01/12 07:57:57;;;;;;;85.90;29.67;;;-0.80;99.90;;;;;;4939595;28;20551;-89
2021/01/12 08:00:24;;;;;;;76.93;27.67;;;-0.60;99.90;;;;;;4956128;28;20186;-89
2021/01/12 08:02:55;;;;;;;93.00;35.83;;;-2.40;99.90;;;;;;4961673;28;20175;-90
2021/01/12 08:05:24;;;;;;;130.70;43.63;;;-2.40;99.90;;;;;;4946604;28;20195;-90
2021/01/12 08:08:03;;;;;;;79.33;32.17;;;-0.80;99.90;;;;;;4942726;28;20578;-88
2021/01/12 08:10:30;;;;;;;52.67;24.33;;;-2.30;99.90;;;;;;4956836;28;20242;-91
2021/01/12 08:13:13;;;;;;;70.67;30.97;;;-2.20;99.90;;;;;;4955178;28;20183;-90
2021/01/12 08:15:43;;;;;;;57.50;24.83;;;-1.40;99.90;;;;;;4959542;28;20195;-92
2021/01/12 08:18:30;;;;;;;62.27;28.50;;;-0.70;99.90;;;;;;4952823;28;20281;-89
2021/01/12 08:20:56;;;;;;;55.37;25.57;;;-2.10;99.90;;;;;;4978394;28;20667;-90
2021/01/12 08:23:22;;;;;;;46.30;21.03;;;-2.00;99.90;;;;;;4952738;28;20200;-90
2021/01/12 08:25:48;;;;;;;53.83;21.90;;;-0.30;99.90;;;;;;4956063;28;20276;-89
2021/01/12 08:28:14;;;;;;;45.83;20.30;;;0.10;99.90;;;;;;4936709;29;20184;-89
2021/01/12 08:30:42;;;;;;;44.17;19.97;;;-0.30;99.90;;;;;;4935217;29;20188;-88
2021/01/12 08:33:14;;;;;;;50.40;21.23;;;0.20;99.90;;;;;;4952107;29;20215;-92
2021/01/12 08:35:47;;;;;;;53.03;22.47;;;-1.70;99.90;;;;;;4960193;28;20240;-91
2021/01/12 08:38:13;;;;;;;48.87;20.60;;;-1.60;99.90;;;;;;4966116;28;20182;-92
2021/01/12 08:40:41;;;;;;;49.50;22.93;;;-1.60;99.90;;;;;;4961042;28;20195;-91
2021/01/12 08:43:17;;;;;;;42.27;21.47;;;-1.10;99.90;;;;;;4953067;29;20192;-86
2021/01/12 08:45:44;;;;;;;45.43;20.10;;;-1.40;99.90;;;;;;4952004;29;20244;-88
2021/01/12 08:48:12;;;;;;;41.67;19.60;;;-1.40;99.90;;;;;;4955305;28;20200;-88
2021/01/12 08:50:39;;;;;;;42.83;20.53;;;-1.30;99.90;;;;;;4953085;28;20197;-87
2021/01/12 08:53:05;;;;;;;40.00;18.80;;;-1.30;99.90;;;;;;4950677;28;20218;-88
2021/01/12 08:55:31;;;;;;;41.17;20.20;;;0.00;99.90;;;;;;4952216;29;20210;-89
2021/01/12 08:57:58;;;;;;;45.20;22.23;;;1.50;99.90;;;;;;4952188;29;20780;-89
2021/01/12 09:01:27;;;;;;;;;;;;;;;;;;;;;
2021/01/12 09:07:56;;;;;;;;;;;;;;;;;;;;;
2021/01/12 09:10:28;;;;;;;37.03;17.27;;;-0.90;99.90;;;;;;4950625;29;20672;-91
2021/01/12 09:12:54;;;;;;;34.03;15.13;;;1.40;99.90;;;;;;4963115;28;20241;-89
2021/01/12 09:15:35;;;;;;;36.47;14.60;;;-0.60;99.90;;;;;;4945772;29;20192;-89
2021/01/12 09:18:08;;;;;;;35.30;15.37;;;-1.90;99.90;;;;;;4962254;28;20207;-92
2021/01/12 09:20:39;;;;;;;29.70;13.40;;;-0.80;99.90;;;;;;4963724;28;20701;-88
2021/01/12 09:23:12;;;;;;;28.33;14.53;;;-0.50;99.90;;;;;;4930467;29;20299;-90
2021/01/12 09:26:34;;;;;;;;;;;;;;;;;;;;;
2021/01/12 09:32:06;;;;;;;;;;;;;;;;;;;;;
2021/01/12 09:35:32;;;;;;;;;;;;;;;;;;;;;
2021/01/12 09:52:56;;;;;;;25.33;13.40;;;-0.60;99.90;;;;;;4815980;29;20207;-92
2021/01/12 10:14:51;;;;;;;31.17;13.23;;;1.10;99.90;;;;;;4859948;29;20272;-95
2021/01/12 10:17:29;;;;;;;27.73;13.37;;;2.90;99.90;;;;;;4930655;29;20203;-91
2021/01/12 10:28:07;;;;;;;32.57;12.90;;;1.30;99.90;;;;;;4921521;29;20183;-95
2021/01/12 10:40:49;;;;;;;;;;;;;;;;;;;;;
2021/01/12 10:43:18;;;;;;;25.00;11.57;;;1.70;99.90;;;;;;4909118;29;20636;-91
2021/01/12 10:45:47;;;;;;;39.33;18.20;;;1.70;99.90;;;;;;4902745;29;20240;-94
2021/01/12 10:48:58;;;;;;;38.40;19.23;;;1.80;99.90;;;;;;4920230;29;20216;-93
2021/01/12 10:51:45;;;;;;;34.73;17.60;;;2.40;99.90;;;;;;4884220;29;20208;-95
2021/01/12 10:54:56;;;;;;;29.33;15.13;;;1.60;99.90;;;;;;4909874;29;20247;-94
2021/01/12 10:57:28;;;;;;;21.10;12.50;;;1.10;99.90;;;;;;4935477;29;20181;-91
2021/01/12 11:00:26;;;;;;;25.13;13.40;;;3.20;99.90;;;;;;4920958;29;20658;-93
2021/01/12 11:10:03;;;;;;;29.97;13.37;;;2.00;99.90;;;;;;4879803;29;20284;-93
2021/01/12 11:13:26;;;;;;;25.63;13.00;;;1.30;99.90;;;;;;4891204;29;20244;-96
2021/01/12 11:19:34;;;;;;;31.93;13.90;;;1.70;99.90;;;;;;4837197;29;20211;-92
2021/01/12 11:22:00;;;;;;;26.97;13.27;;;3.20;99.90;;;;;;4899779;29;20192;-91
2021/01/12 11:24:31;;;;;;;28.13;14.00;;;1.40;99.90;;;;;;4920132;29;20196;-93
2021/01/12 11:27:19;;;;;;;25.57;13.70;;;3.30;99.90;;;;;;4922501;29;20180;-94
2021/01/12 11:29:53;;;;;;;24.43;12.23;;;1.70;99.90;;;;;;4926181;29;20200;-96
2021/01/12 11:32:19;;;;;;;24.23;11.67;;;1.40;99.90;;;;;;4917623;29;20235;-92
2021/01/12 11:34:52;;;;;;;25.50;12.77;;;1.90;99.90;;;;;;4923329;29;20208;-94
2021/01/12 11:37:18;;;;;;;27.50;12.73;;;1.80;99.90;;;;;;4933786;29;20189;-94
2021/01/12 11:39:50;;;;;;;23.70;12.93;;;2.30;99.90;;;;;;4913791;29;20483;-94
2021/01/12 11:42:16;;;;;;;25.63;12.57;;;2.60;99.90;;;;;;4922038;29;20658;-92
2021/01/12 11:44:43;;;;;;;31.37;13.50;;;1.70;99.90;;;;;;4921976;29;20655;-93
2021/01/12 11:47:16;;;;;;;22.13;11.93;;;3.40;99.90;;;;;;4921271;29;20189;-92
2021/01/12 11:49:45;;;;;;;24.23;12.60;;;2.80;99.90;;;;;;4917971;29;20277;-95
2021/01/12 11:52:18;;;;;;;25.33;12.20;;;2.00;99.90;;;;;;4908454;29;20188;-95
2021/01/12 11:54:45;;;;;;;30.13;14.20;;;2.60;99.90;;;;;;4922495;29;20257;-96
2021/01/12 11:57:14;;;;;;;32.33;15.70;;;5.00;99.90;;;;;;4943372;29;20267;-94
2021/01/12 11:59:57;;;;;;;33.07;15.70;;;2.80;99.90;;;;;;4920718;29;20189;-92
2021/01/12 12:02:32;;;;;;;31.37;14.93;;;3.20;99.90;;;;;;4933017;29;20221;-95
2021/01/12 12:05:04;;;;;;;29.87;14.50;;;3.90;98.00;;;;;;4930182;29;20257;-95
2021/01/12 12:07:34;;;;;;;33.37;15.23;;;3.30;93.00;;;;;;4926874;29;20195;-93
2021/01/12 12:10:10;;;;;;;28.03;14.47;;;4.60;92.80;;;;;;4932314;29;20247;-95
2021/01/12 12:12:41;;;;;;;28.67;15.23;;;3.90;90.40;;;;;;4914247;29;20260;-95
2021/01/12 12:15:07;;;;;;;33.40;15.63;;;4.80;90.20;;;;;;4916210;29;20221;-94
2021/01/12 12:17:39;;;;;;;29.27;13.17;;;7.20;91.00;;;;;;4935715;29;20195;-94
2021/01/12 12:20:05;;;;;;;22.43;11.93;;;4.50;86.10;;;;;;4911630;29;20200;-95
2021/01/12 12:22:31;;;;;;;25.10;12.87;;;4.60;85.40;;;;;;4900203;29;20231;-93
2021/01/12 12:25:08;;;;;;;30.60;14.03;;;4.50;88.20;;;;;;4910282;29;20268;-95
2021/01/12 12:27:34;;;;;;;30.37;15.40;;;4.50;87.40;;;;;;4932773;29;20190;-95
2021/01/12 12:30:05;;;;;;;31.07;15.70;;;4.20;90.60;;;;;;4927329;29;20185;-93
2021/01/12 12:32:31;;;;;;;33.30;15.60;;;4.80;89.60;;;;;;4934897;29;20206;-93
2021/01/12 12:35:02;;;;;;;32.87;16.07;;;4.30;91.50;;;;;;4934029;29;20306;-94
2021/01/12 12:37:27;;;;;;;30.07;15.97;;;3.10;88.90;;;;;;4911715;29;20210;-95
2021/01/12 12:39:53;;;;;;;28.10;14.77;;;4.70;90.00;;;;;;4917193;29;20227;-95
2021/01/12 12:42:19;;;;;;;32.23;15.77;;;5.90;90.00;;;;;;4921304;29;20226;-95
2021/01/12 12:44:45;;;;;;;47.67;19.73;;;5.10;84.80;;;;;;4932540;29;20230;-95
2021/01/12 12:47:12;;;;;;;71.97;26.00;;;5.40;85.30;;;;;;4930400;29;20182;-95
2021/01/12 12:49:50;;;;;;;50.83;20.40;;;5.20;83.60;;;;;;4901368;29;20197;-95
2021/01/12 12:52:16;;;;;;;44.33;19.10;;;5.30;83.00;;;;;;4915650;29;20189;-92
2021/01/12 12:54:41;;;;;;;38.70;16.07;;;5.20;85.40;;;;;;4978385;23;20240;-91
2021/01/12 12:57:13;;;;;;;27.17;14.10;;;5.90;81.60;;;;;;5424782;23;20248;-93
2021/01/12 12:59:38;;;;;;;26.80;13.17;;;5.70;82.50;;;;;;5341868;23;21302;-90
2021/01/12 13:02:04;;;;;;;32.00;14.77;;;6.40;77.50;;;;;;5118701;23;20225;-89
2021/01/12 13:04:32;;;;;;;38.93;17.10;;;6.00;78.60;;;;;;5035595;23;20257;-95
2021/01/12 13:07:08;;;;;;;41.13;19.30;;;6.10;77.10;;;;;;4964996;28;20182;-89
2021/01/12 13:09:34;;;;;;;30.07;15.43;;;6.00;76.40;;;;;;4950440;28;20194;-91
2021/01/12 13:12:02;;;;;;;32.47;15.03;;;5.40;75.90;;;;;;4952639;28;20663;-94
2021/01/12 13:14:28;;;;;;;29.93;13.63;;;3.10;76.20;;;;;;4961353;28;20242;-94
2021/01/12 13:16:54;;;;;;;33.10;15.37;;;4.20;80.80;;;;;;4978165;23;20219;-91
2021/01/12 13:19:26;;;;;;;26.60;14.00;;;3.80;86.20;;;;;;4958602;29;20200;-92
2021/01/12 13:21:54;;;;;;;31.93;15.87;;;4.10;88.80;;;;;;5009013;23;20239;-95
2021/01/12 13:24:29;;;;;;;38.57;16.97;;;4.20;90.60;;;;;;4932128;29;20275;-94
2021/01/12 13:26:56;;;;;;;47.17;20.17;;;2.60;91.40;;;;;;4963314;23;20249;-94
2021/01/12 13:29:24;;;;;;;54.20;22.27;;;2.10;92.50;;;;;;5062479;23;20268;-93
2021/01/12 13:31:54;;;;;;;50.20;22.27;;;3.20;93.90;;;;;;5015228;23;20174;-95
2021/01/12 13:36:58;;;;;;;35.93;15.40;;;2.40;94.50;;;;;;5190811;23;20244;-94
2021/01/12 13:39:24;;;;;;;34.13;16.17;;;2.50;95.50;;;;;;4943977;29;20184;-93
2021/01/12 13:41:54;;;;;;;50.03;20.70;;;2.40;96.30;;;;;;4913061;29;20187;-92
2021/01/12 13:44:19;;;;;;;45.10;20.07;;;3.00;97.00;;;;;;4897602;29;20189;-95
2021/01/12 13:46:48;;;;;;;49.30;20.10;;;2.30;98.20;;;;;;4927213;29;20191;-95
2021/01/12 13:49:17;;;;;;;60.93;24.07;;;4.50;98.70;;;;;;4915773;29;20272;-95
2021/01/12 13:51:43;;;;;;;65.27;25.13;;;2.30;99.00;;;;;;4910372;29;20191;-94
2021/01/12 13:54:10;;;;;;;60.50;25.60;;;1.70;97.80;;;;;;4930347;29;20217;-96
2021/01/12 13:56:41;;;;;;;57.60;23.77;;;2.20;98.40;;;;;;4925345;29;20208;-93
2021/01/12 13:59:14;;;;;;;45.07;20.17;;;2.00;98.30;;;;;;4913867;29;20184;-95
2021/01/12 14:01:43;;;;;;;44.43;19.63;;;2.20;98.80;;;;;;4938089;29;20195;-92
2021/01/12 14:04:10;;;;;;;41.93;19.63;;;3.70;99.30;;;;;;4912542;29;20188;-94